sensor_id;sensor_type;location;lat;lon;timestamp;pressure;altitude;pressure_sealevel;temperature;humidity
59272;BME280;45043;51.068;7.026;2022-08-25T00:01:55;100523.81;;;21.97;31.58
59272;BME280;45043;51.068;7.026;2022-08-25T00:04:56;100525.16;;;21.94;31.48
59272;BME280;45043;51.068;7.026;2022-08-25T00:07:56;100523.81;;;21.97;31.58
59272;BME280;45043;51.068;7.026;2022-08-25T00:10:57;100526.50;;;21.97;31.65
59272;BME280;45043;51.068;7.026;2022-08-25T00:14:01;100518.41;;;21.97;31.56
59272;BME280;45043;51.068;7.026;2022-08-25T00:17:03;100518.94;;;21.94;31.81
59272;BME280;45043;51.068;7.026;2022-08-25T00:20:06;100515.16;;;21.90;32.00
59272;BME280;45043;51.068;7.026;2022-08-25T00:23:08;100521.38;;;21.85;31.88
59272;BME280;45043;51.068;7.026;2022-08-25T00:26:09;100521.91;;;21.82;32.00
59272;BME280;45043;51.068;7.026;2022-08-25T00:29:10;100518.94;;;21.78;32.78
59272;BME280;45043;51.068;7.026;2022-08-25T00:32:10;100519.47;;;21.75;32.54
59272;BME280;45043;51.068;7.026;2022-08-25T00:35:11;100520.81;;;21.68;32.38
59272;BME280;45043;51.068;7.026;2022-08-25T00:38:12;100522.97;;;21.66;32.58
59272;BME280;45043;51.068;7.026;2022-08-25T00:41:17;100520.00;;;21.62;32.54
59272;BME280;45043;51.068;7.026;2022-08-25T00:44:20;100524.59;;;21.57;32.69
59272;BME280;45043;51.068;7.026;2022-08-25T00:47:20;100527.56;;;21.50;32.68
59272;BME280;45043;51.068;7.026;2022-08-25T00:50:21;100528.91;;;21.47;32.69
59272;BME280;45043;51.068;7.026;2022-08-25T00:53:22;100522.13;;;21.45;32.83
59272;BME280;45043;51.068;7.026;2022-08-25T00:56:23;100524.28;;;21.43;32.99
59272;BME280;45043;51.068;7.026;2022-08-25T00:59:25;100517.78;;;21.39;33.46
59272;BME280;45043;51.068;7.026;2022-08-25T01:02:27;100524.81;;;21.35;33.01
59272;BME280;45043;51.068;7.026;2022-08-25T01:05:28;100529.66;;;21.33;33.31
59272;BME280;45043;51.068;7.026;2022-08-25T01:08:31;100521.03;;;21.30;33.16
59272;BME280;45043;51.068;7.026;2022-08-25T01:11:33;100521.53;;;21.27;33.17
59272;BME280;45043;51.068;7.026;2022-08-25T01:14:34;100524.78;;;21.24;33.55
59272;BME280;45043;51.068;7.026;2022-08-25T01:17:54;100523.16;;;21.18;33.57
59272;BME280;45043;51.068;7.026;2022-08-25T01:20:57;100518.28;;;21.15;33.45
59272;BME280;45043;51.068;7.026;2022-08-25T01:24:00;100518.81;;;21.12;34.03
59272;BME280;45043;51.068;7.026;2022-08-25T01:27:00;100519.06;;;21.05;34.45
59272;BME280;45043;51.068;7.026;2022-08-25T01:30:01;100510.09;;;20.95;34.38
59272;BME280;45043;51.068;7.026;2022-08-25T01:33:07;100517.16;;;21.01;34.68
59272;BME280;45043;51.068;7.026;2022-08-25T01:36:08;100524.97;;;20.97;34.43
59272;BME280;45043;51.068;7.026;2022-08-25T01:39:09;100528.50;;;20.98;34.43
59272;BME280;45043;51.068;7.026;2022-08-25T01:45:33;100526.84;;;20.92;34.40
59272;BME280;45043;51.068;7.026;2022-08-25T01:48:33;100523.59;;;20.85;34.75
59272;BME280;45043;51.068;7.026;2022-08-25T01:51:50;100531.13;;;20.88;34.86
59272;BME280;45043;51.068;7.026;2022-08-25T01:54:51;100528.44;;;20.88;34.79
59272;BME280;45043;51.068;7.026;2022-08-25T01:57:52;100527.34;;;20.83;34.88
59272;BME280;45043;51.068;7.026;2022-08-25T02:00:54;100527.88;;;20.80;35.26
59272;BME280;45043;51.068;7.026;2022-08-25T02:03:56;100525.69;;;20.77;35.39
59272;BME280;45043;51.068;7.026;2022-08-25T02:06:59;100525.13;;;20.75;35.46
59272;BME280;45043;51.068;7.026;2022-08-25T02:10:00;100533.22;;;20.70;35.69
59272;BME280;45043;51.068;7.026;2022-08-25T02:13:03;100528.34;;;20.67;35.94
59272;BME280;45043;51.068;7.026;2022-08-25T02:16:04;100528.28;;;20.62;36.51
59272;BME280;45043;51.068;7.026;2022-08-25T02:19:08;100529.38;;;20.61;36.42
59272;BME280;45043;51.068;7.026;2022-08-25T02:22:09;100528.28;;;20.57;36.47
59272;BME280;45043;51.068;7.026;2022-08-25T02:25:09;100534.75;;;20.56;36.56
59272;BME280;45043;51.068;7.026;2022-08-25T02:28:10;100517.69;;;20.40;37.04
59272;BME280;45043;51.068;7.026;2022-08-25T02:31:12;100526.31;;;20.42;37.18
59272;BME280;45043;51.068;7.026;2022-08-25T02:34:13;100529.78;;;20.38;37.56
59272;BME280;45043;51.068;7.026;2022-08-25T02:37:14;100529.75;;;20.32;37.82
59272;BME280;45043;51.068;7.026;2022-08-25T02:40:15;100527.59;;;20.29;37.27
59272;BME280;45043;51.068;7.026;2022-08-25T02:43:16;100526.50;;;20.25;37.87
59272;BME280;45043;51.068;7.026;2022-08-25T02:46:18;100524.53;;;20.21;37.92
59272;BME280;45043;51.068;7.026;2022-08-25T02:49:19;100526.41;;;20.15;38.03
59272;BME280;45043;51.068;7.026;2022-08-25T02:52:20;100526.91;;;20.12;38.20
59272;BME280;45043;51.068;7.026;2022-08-25T02:55:20;100521.53;;;20.12;38.09
59272;BME280;45043;51.068;7.026;2022-08-25T02:58:21;100522.81;;;20.09;38.07
59272;BME280;45043;51.068;7.026;2022-08-25T03:01:22;100522.00;;;20.09;37.94
59272;BME280;45043;51.068;7.026;2022-08-25T03:04:22;100502.03;;;20.05;38.31
59272;BME280;45043;51.068;7.026;2022-08-25T03:07:23;100499.84;;;20.02;38.76
59272;BME280;45043;51.068;7.026;2022-08-25T03:10:23;100499.81;;;19.97;38.78
59272;BME280;45043;51.068;7.026;2022-08-25T03:13:24;100497.63;;;19.94;38.91
59272;BME280;45043;51.068;7.026;2022-08-25T03:16:24;100498.41;;;19.89;39.01
59272;BME280;45043;51.068;7.026;2022-08-25T03:19:24;100487.34;;;19.85;39.14
59272;BME280;45043;51.068;7.026;2022-08-25T03:22:25;100492.16;;;19.83;39.13
59272;BME280;45043;51.068;7.026;2022-08-25T03:25:26;100489.44;;;19.78;39.38
59272;BME280;45043;51.068;7.026;2022-08-25T03:28:45;100481.59;;;19.77;39.26
59272;BME280;45043;51.068;7.026;2022-08-25T03:31:46;100481.56;;;19.72;39.71
59272;BME280;45043;51.068;7.026;2022-08-25T03:34:46;100485.56;;;19.69;39.92
59272;BME280;45043;51.068;7.026;2022-08-25T03:37:47;100493.13;;;19.67;40.13
59272;BME280;45043;51.068;7.026;2022-08-25T03:40:48;100480.97;;;19.65;40.05
59272;BME280;45043;51.068;7.026;2022-08-25T03:43:49;100484.44;;;19.60;39.81
59272;BME280;45043;51.068;7.026;2022-08-25T03:46:51;100477.94;;;19.56;40.05
59272;BME280;45043;51.068;7.026;2022-08-25T03:49:51;100481.13;;;19.53;40.55
59272;BME280;45043;51.068;7.026;2022-08-25T03:52:54;100476.00;;;19.51;40.68
59272;BME280;45043;51.068;7.026;2022-08-25T03:55:55;100488.66;;;19.51;40.55
59272;BME280;45043;51.068;7.026;2022-08-25T03:58:56;100487.53;;;19.47;40.30
59272;BME280;45043;51.068;7.026;2022-08-25T04:01:57;100471.25;;;19.36;41.12
59272;BME280;45043;51.068;7.026;2022-08-25T04:04:57;100475.56;;;19.37;41.39
59272;BME280;45043;51.068;7.026;2022-08-25T04:07:58;100460.50;;;19.36;41.58
59272;BME280;45043;51.068;7.026;2022-08-25T04:11:08;100451.34;;;19.37;41.35
59272;BME280;45043;51.068;7.026;2022-08-25T04:14:09;100449.09;;;19.29;41.14
59272;BME280;45043;51.068;7.026;2022-08-25T04:17:09;100443.94;;;19.23;41.66
59272;BME280;45043;51.068;7.026;2022-08-25T04:20:10;100444.44;;;19.20;41.79
59272;BME280;45043;51.068;7.026;2022-08-25T04:23:11;100446.84;;;19.21;42.39
59272;BME280;45043;51.068;7.026;2022-08-25T04:26:18;100452.00;;;19.23;42.21
59272;BME280;45043;51.068;7.026;2022-08-25T04:29:22;100444.47;;;19.25;41.88
59272;BME280;45043;51.068;7.026;2022-08-25T04:32:23;100449.31;;;19.23;42.25
59272;BME280;45043;51.068;7.026;2022-08-25T04:35:25;100451.44;;;19.21;41.98
59272;BME280;45043;51.068;7.026;2022-08-25T04:38:26;100456.00;;;19.20;42.12
59272;BME280;45043;51.068;7.026;2022-08-25T04:41:27;100456.00;;;19.20;42.42
59272;BME280;45043;51.068;7.026;2022-08-25T04:44:29;100457.63;;;19.21;42.23
59272;BME280;45043;51.068;7.026;2022-08-25T04:47:36;100455.19;;;19.20;42.46
59272;BME280;45043;51.068;7.026;2022-08-25T04:50:38;100455.19;;;19.20;42.55
59272;BME280;45043;51.068;7.026;2022-08-25T04:53:39;100453.88;;;19.22;42.95
59272;BME280;45043;51.068;7.026;2022-08-25T04:56:40;100460.09;;;19.23;42.58
59272;BME280;45043;51.068;7.026;2022-08-25T04:59:40;100462.00;;;19.27;42.50
59272;BME280;45043;51.068;7.026;2022-08-25T05:02:41;100458.22;;;19.28;42.87
59272;BME280;45043;51.068;7.026;2022-08-25T05:05:41;100456.13;;;19.30;43.04
59272;BME280;45043;51.068;7.026;2022-08-25T05:08:42;100450.72;;;19.30;42.67
59272;BME280;45043;51.068;7.026;2022-08-25T05:11:43;100450.22;;;19.33;42.37
59272;BME280;45043;51.068;7.026;2022-08-25T05:14:44;100440.88;;;19.41;42.75
59272;BME280;45043;51.068;7.026;2022-08-25T05:17:44;100448.16;;;19.41;42.70
59272;BME280;45043;51.068;7.026;2022-08-25T05:20:45;100450.84;;;19.41;42.51
59272;BME280;45043;51.068;7.026;2022-08-25T05:23:46;100458.97;;;19.46;42.31
59272;BME280;45043;51.068;7.026;2022-08-25T05:26:48;100447.72;;;19.54;42.47
59272;BME280;45043;51.068;7.026;2022-08-25T05:29:48;100449.25;;;19.77;43.54
59272;BME280;45043;51.068;7.026;2022-08-25T05:32:49;100444.53;;;20.37;41.62
59272;BME280;45043;51.068;7.026;2022-08-25T05:35:52;100440.34;;;20.76;40.72
59272;BME280;45043;51.068;7.026;2022-08-25T05:38:53;100440.16;;;20.93;40.26
59272;BME280;45043;51.068;7.026;2022-08-25T05:41:54;100436.41;;;21.10;39.88
59272;BME280;45043;51.068;7.026;2022-08-25T05:44:55;100432.66;;;21.21;39.71
59272;BME280;45043;51.068;7.026;2022-08-25T05:47:55;100431.56;;;21.32;39.74
59272;BME280;45043;51.068;7.026;2022-08-25T05:50:59;100435.09;;;21.38;39.29
59272;BME280;45043;51.068;7.026;2022-08-25T05:53:59;100440.25;;;21.44;39.10
59272;BME280;45043;51.068;7.026;2022-08-25T05:57:00;100445.38;;;21.51;39.16
59272;BME280;45043;51.068;7.026;2022-08-25T06:00:01;100435.38;;;21.62;39.11
59272;BME280;45043;51.068;7.026;2022-08-25T06:03:12;100445.66;;;21.75;39.12
59272;BME280;45043;51.068;7.026;2022-08-25T06:06:14;100437.81;;;21.84;38.42
59272;BME280;45043;51.068;7.026;2022-08-25T06:09:15;100442.13;;;21.79;38.77
59272;BME280;45043;51.068;7.026;2022-08-25T06:12:17;100431.56;;;21.88;38.75
59272;BME280;45043;51.068;7.026;2022-08-25T06:15:23;100429.69;;;21.94;38.45
59272;BME280;45043;51.068;7.026;2022-08-25T06:18:23;100429.97;;;21.82;39.37
59272;BME280;45043;51.068;7.026;2022-08-25T06:21:24;100432.97;;;21.70;39.76
59272;BME280;45043;51.068;7.026;2022-08-25T06:24:26;100433.50;;;21.67;39.52
59272;BME280;45043;51.068;7.026;2022-08-25T06:27:27;100433.50;;;21.62;39.63
59272;BME280;45043;51.068;7.026;2022-08-25T06:30:28;100437.84;;;21.53;40.09
59272;BME280;45043;51.068;7.026;2022-08-25T06:33:28;100447.03;;;21.52;39.96
59272;BME280;45043;51.068;7.026;2022-08-25T06:36:29;100441.34;;;21.53;39.85
59272;BME280;45043;51.068;7.026;2022-08-25T06:39:29;100438.94;;;21.52;39.90
59272;BME280;45043;51.068;7.026;2022-08-25T06:42:30;100446.47;;;21.65;39.74
59272;BME280;45043;51.068;7.026;2022-08-25T06:45:31;100448.63;;;21.68;39.84
59272;BME280;45043;51.068;7.026;2022-08-25T06:48:31;100450.81;;;21.71;40.02
59272;BME280;45043;51.068;7.026;2022-08-25T06:51:34;100452.69;;;21.76;39.41
59272;BME280;45043;51.068;7.026;2022-08-25T06:54:37;100459.16;;;21.80;39.99
59272;BME280;45043;51.068;7.026;2022-08-25T06:57:38;100465.94;;;21.83;39.64
59272;BME280;45043;51.068;7.026;2022-08-25T07:00:38;100454.56;;;21.81;39.59
59272;BME280;45043;51.068;7.026;2022-08-25T07:03:39;100462.16;;;21.89;40.00
59272;BME280;45043;51.068;7.026;2022-08-25T07:06:40;100465.94;;;21.93;39.29
59272;BME280;45043;51.068;7.026;2022-08-25T07:09:41;100463.75;;;22.00;39.75
59272;BME280;45043;51.068;7.026;2022-08-25T07:12:41;100462.09;;;22.09;39.58
59272;BME280;45043;51.068;7.026;2022-08-25T07:15:42;100458.06;;;22.17;39.23
59272;BME280;45043;51.068;7.026;2022-08-25T07:18:44;100449.09;;;22.21;39.58
59272;BME280;45043;51.068;7.026;2022-08-25T07:21:47;100443.97;;;22.25;39.06
59272;BME280;45043;51.068;7.026;2022-08-25T07:28:49;100456.09;;;22.38;39.21
59272;BME280;45043;51.068;7.026;2022-08-25T07:31:49;100444.16;;;22.44;39.15
59272;BME280;45043;51.068;7.026;2022-08-25T07:34:50;100449.81;;;22.53;39.07
59272;BME280;45043;51.068;7.026;2022-08-25T07:38:09;100446.28;;;22.57;38.73
59272;BME280;45043;51.068;7.026;2022-08-25T07:41:10;100451.66;;;22.67;38.68
59272;BME280;45043;51.068;7.026;2022-08-25T07:44:11;100454.31;;;22.83;38.50
59272;BME280;45043;51.068;7.026;2022-08-25T07:47:12;100449.41;;;22.90;38.75
59272;BME280;45043;51.068;7.026;2022-08-25T07:50:15;100453.94;;;22.99;38.30
59272;BME280;45043;51.068;7.026;2022-08-25T07:53:16;100457.44;;;23.05;37.88
59272;BME280;45043;51.068;7.026;2022-08-25T07:56:17;100456.03;;;23.13;37.72
59272;BME280;45043;51.068;7.026;2022-08-25T07:59:18;100446.47;;;23.26;37.90
59272;BME280;45043;51.068;7.026;2022-08-25T08:02:18;100452.34;;;23.33;37.65
59272;BME280;45043;51.068;7.026;2022-08-25T08:05:19;100450.97;;;23.40;37.38
59272;BME280;45043;51.068;7.026;2022-08-25T08:08:26;100444.44;;;23.46;37.42
59272;BME280;45043;51.068;7.026;2022-08-25T08:11:33;100442.44;;;23.57;37.00
59272;BME280;45043;51.068;7.026;2022-08-25T08:14:36;100444.81;;;23.64;37.00
59272;BME280;45043;51.068;7.026;2022-08-25T08:17:38;100446.63;;;23.74;37.09
59272;BME280;45043;51.068;7.026;2022-08-25T08:20:38;100438.94;;;23.86;36.68
59272;BME280;45043;51.068;7.026;2022-08-25T08:23:39;100438.59;;;23.92;36.97
59272;BME280;45043;51.068;7.026;2022-08-25T08:26:40;100437.44;;;24.04;36.35
59272;BME280;45043;51.068;7.026;2022-08-25T08:29:41;100427.59;;;24.08;37.06
59272;BME280;45043;51.068;7.026;2022-08-25T08:32:41;100427.78;;;24.16;36.30
59272;BME280;45043;51.068;7.026;2022-08-25T08:35:42;100414.09;;;24.27;35.91
59272;BME280;45043;51.068;7.026;2022-08-25T08:38:56;100416.69;;;24.37;35.91
59272;BME280;45043;51.068;7.026;2022-08-25T08:42:06;100419.19;;;24.52;35.68
59272;BME280;45043;51.068;7.026;2022-08-25T08:48:44;100411.75;;;24.63;35.75
59272;BME280;45043;51.068;7.026;2022-08-25T08:51:56;100406.25;;;24.68;35.48
59272;BME280;45043;51.068;7.026;2022-08-25T08:55:02;100409.53;;;24.84;35.47
59272;BME280;45043;51.068;7.026;2022-08-25T09:01:50;100406.53;;;25.04;34.60
59272;BME280;45043;51.068;7.026;2022-08-25T09:05:02;100400.44;;;25.12;34.79
59272;BME280;45043;51.068;7.026;2022-08-25T09:08:06;100394.34;;;25.21;34.53
59272;BME280;45043;51.068;7.026;2022-08-25T09:11:25;100392.34;;;25.26;34.32
59272;BME280;45043;51.068;7.026;2022-08-25T09:18:05;100378.78;;;25.40;34.47
59272;BME280;45043;51.068;7.026;2022-08-25T09:21:40;100380.72;;;25.53;33.84
59272;BME280;45043;51.068;7.026;2022-08-25T09:25:03;100379.34;;;25.56;33.86
59272;BME280;45043;51.068;7.026;2022-08-25T09:28:12;100379.66;;;25.68;33.56
59272;BME280;45043;51.068;7.026;2022-08-25T09:31:26;100371.63;;;25.77;33.23
59272;BME280;45043;51.068;7.026;2022-08-25T09:34:32;100367.38;;;25.84;33.13
59272;BME280;45043;51.068;7.026;2022-08-25T09:37:34;100375.25;;;25.86;32.98
59272;BME280;45043;51.068;7.026;2022-08-25T09:40:55;100373.03;;;25.88;33.08
59272;BME280;45043;51.068;7.026;2022-08-25T09:43:58;100362.34;;;26.05;32.46
59272;BME280;45043;51.068;7.026;2022-08-25T09:50:14;100361.84;;;26.31;31.80
59272;BME280;45043;51.068;7.026;2022-08-25T09:53:16;100354.88;;;26.39;31.73
59272;BME280;45043;51.068;7.026;2022-08-25T09:56:19;100350.22;;;26.53;32.41
59272;BME280;45043;51.068;7.026;2022-08-25T10:02:26;100341.13;;;26.44;31.71
59272;BME280;45043;51.068;7.026;2022-08-25T10:05:28;100344.56;;;26.49;31.86
59272;BME280;45043;51.068;7.026;2022-08-25T10:08:39;100340.50;;;26.61;31.57
59272;BME280;45043;51.068;7.026;2022-08-25T10:11:43;100336.41;;;26.72;31.43
59272;BME280;45043;51.068;7.026;2022-08-25T10:14:44;100338.81;;;26.87;30.63
59272;BME280;45043;51.068;7.026;2022-08-25T10:17:44;100334.34;;;26.91;30.48
59272;BME280;45043;51.068;7.026;2022-08-25T10:21:09;100336.13;;;26.96;30.38
59272;BME280;45043;51.068;7.026;2022-08-25T10:24:18;100338.16;;;27.13;29.20
59272;BME280;45043;51.068;7.026;2022-08-25T10:40:32;100312.22;;;27.46;29.06
59272;BME280;45043;51.068;7.026;2022-08-25T10:46:53;100304.41;;;27.62;28.78
59272;BME280;45043;51.068;7.026;2022-08-25T10:53:22;100295.75;;;27.60;28.06
59272;BME280;45043;51.068;7.026;2022-08-25T10:56:39;100286.72;;;27.51;28.27
59272;BME280;45043;51.068;7.026;2022-08-25T11:03:23;100291.38;;;27.50;29.20
59272;BME280;45043;51.068;7.026;2022-08-25T11:06:39;100287.31;;;27.08;30.22
59272;BME280;45043;51.068;7.026;2022-08-25T11:09:43;100285.19;;;27.05;28.74
59272;BME280;45043;51.068;7.026;2022-08-25T11:12:53;100284.41;;;27.04;29.02
59272;BME280;45043;51.068;7.026;2022-08-25T11:16:17;100270.34;;;26.89;29.21
59272;BME280;45043;51.068;7.026;2022-08-25T11:19:33;100280.66;;;26.19;31.01
59272;BME280;45043;51.068;7.026;2022-08-25T11:22:39;100273.16;;;26.25;30.42
59272;BME280;45043;51.068;7.026;2022-08-25T11:25:44;100276.47;;;26.72;29.29
59272;BME280;45043;51.068;7.026;2022-08-25T11:28:51;100264.34;;;27.00;28.50
59272;BME280;45043;51.068;7.026;2022-08-25T11:31:57;100264.22;;;27.14;28.38
59272;BME280;45043;51.068;7.026;2022-08-25T11:35:03;100268.13;;;27.22;28.03
59272;BME280;45043;51.068;7.026;2022-08-25T11:44:53;100247.63;;;27.73;27.05
59272;BME280;45043;51.068;7.026;2022-08-25T11:51:24;100264.56;;;28.01;26.45
59272;BME280;45043;51.068;7.026;2022-08-25T11:54:43;100259.94;;;28.28;25.77
59272;BME280;45043;51.068;7.026;2022-08-25T11:57:46;100255.91;;;28.42;25.61
59272;BME280;45043;51.068;7.026;2022-08-25T12:00:47;100251.09;;;28.57;25.48
59272;BME280;45043;51.068;7.026;2022-08-25T12:03:50;100242.09;;;28.65;24.83
59272;BME280;45043;51.068;7.026;2022-08-25T12:10:11;100231.16;;;28.65;24.75
59272;BME280;45043;51.068;7.026;2022-08-25T12:22:42;100210.44;;;29.11;24.80
59272;BME280;45043;51.068;7.026;2022-08-25T12:25:52;100216.34;;;29.22;24.97
59272;BME280;45043;51.068;7.026;2022-08-25T12:38:32;100207.28;;;29.68;24.66
59272;BME280;45043;51.068;7.026;2022-08-25T12:41:34;100196.41;;;29.80;23.68
59272;BME280;45043;51.068;7.026;2022-08-25T12:45:12;100209.09;;;29.64;23.88
59272;BME280;45043;51.068;7.026;2022-08-25T12:54:49;100193.81;;;29.84;22.23
59272;BME280;45043;51.068;7.026;2022-08-25T12:57:53;100188.47;;;29.87;23.03
59272;BME280;45043;51.068;7.026;2022-08-25T13:11:12;100186.19;;;29.89;23.27
59272;BME280;45043;51.068;7.026;2022-08-25T13:14:21;100188.06;;;29.98;23.28
59272;BME280;45043;51.068;7.026;2022-08-25T13:17:31;100174.66;;;30.05;23.48
59272;BME280;45043;51.068;7.026;2022-08-25T13:20:32;100174.44;;;30.10;23.01
59272;BME280;45043;51.068;7.026;2022-08-25T13:23:36;100169.22;;;30.17;22.72
59272;BME280;45043;51.068;7.026;2022-08-25T13:26:39;100154.63;;;30.25;22.77
59272;BME280;45043;51.068;7.026;2022-08-25T13:29:51;100147.97;;;30.14;22.96
59272;BME280;45043;51.068;7.026;2022-08-25T13:32:52;100157.72;;;30.24;22.83
59272;BME280;45043;51.068;7.026;2022-08-25T13:35:54;100153.53;;;30.38;23.04
59272;BME280;45043;51.068;7.026;2022-08-25T13:39:17;100152.44;;;30.52;22.77
59272;BME280;45043;51.068;7.026;2022-08-25T13:42:18;100150.31;;;30.57;22.93
59272;BME280;45043;51.068;7.026;2022-08-25T13:45:21;100146.09;;;30.60;22.70
59272;BME280;45043;51.068;7.026;2022-08-25T13:48:36;100136.72;;;30.61;22.35
59272;BME280;45043;51.068;7.026;2022-08-25T13:51:39;100137.97;;;30.63;22.72
59272;BME280;45043;51.068;7.026;2022-08-25T13:54:56;100134.94;;;30.44;22.35
59272;BME280;45043;51.068;7.026;2022-08-25T13:57:58;100134.59;;;30.46;22.29
59272;BME280;45043;51.068;7.026;2022-08-25T14:01:16;100127.56;;;30.57;22.41
59272;BME280;45043;51.068;7.026;2022-08-25T14:07:30;100124.16;;;30.72;21.87
59272;BME280;45043;51.068;7.026;2022-08-25T14:13:36;100115.25;;;30.87;21.12
59272;BME280;45043;51.068;7.026;2022-08-25T14:16:45;100106.91;;;30.96;21.72
59272;BME280;45043;51.068;7.026;2022-08-25T14:19:46;100112.75;;;31.07;21.74
59272;BME280;45043;51.068;7.026;2022-08-25T14:22:52;100106.81;;;31.17;20.95
59272;BME280;45043;51.068;7.026;2022-08-25T14:25:55;100106.22;;;31.24;20.74
59272;BME280;45043;51.068;7.026;2022-08-25T14:29:00;100113.66;;;31.23;21.60
59272;BME280;45043;51.068;7.026;2022-08-25T14:32:02;100110.47;;;31.09;20.82
59272;BME280;45043;51.068;7.026;2022-08-25T14:35:03;100109.78;;;31.12;21.12
59272;BME280;45043;51.068;7.026;2022-08-25T14:38:08;100120.06;;;31.15;20.75
59272;BME280;45043;51.068;7.026;2022-08-25T14:41:09;100114.47;;;31.11;20.74
59272;BME280;45043;51.068;7.026;2022-08-25T14:44:09;100113.09;;;31.18;21.03
59272;BME280;45043;51.068;7.026;2022-08-25T14:47:10;100109.53;;;31.29;20.82
59272;BME280;45043;51.068;7.026;2022-08-25T14:50:12;100101.28;;;31.29;19.92
59272;BME280;45043;51.068;7.026;2022-08-25T14:53:13;100103.38;;;31.08;20.24
59272;BME280;45043;51.068;7.026;2022-08-25T14:56:14;100094.78;;;30.85;20.28
59272;BME280;45043;51.068;7.026;2022-08-25T14:59:15;100101.31;;;30.68;20.96
59272;BME280;45043;51.068;7.026;2022-08-25T15:02:16;100093.53;;;30.58;21.23
59272;BME280;45043;51.068;7.026;2022-08-25T15:05:24;100098.19;;;30.45;20.94
59272;BME280;45043;51.068;7.026;2022-08-25T15:08:26;100096.53;;;30.32;21.49
59272;BME280;45043;51.068;7.026;2022-08-25T15:11:51;100089.09;;;30.20;21.71
59272;BME280;45043;51.068;7.026;2022-08-25T15:14:52;100089.03;;;30.08;22.23
59272;BME280;45043;51.068;7.026;2022-08-25T15:17:52;100081.06;;;30.03;21.76
59272;BME280;45043;51.068;7.026;2022-08-25T15:20:53;100076.38;;;30.03;21.96
59272;BME280;45043;51.068;7.026;2022-08-25T15:23:54;100076.88;;;29.97;21.89
59272;BME280;45043;51.068;7.026;2022-08-25T15:26:59;100071.63;;;29.91;22.09
59272;BME280;45043;51.068;7.026;2022-08-25T15:30:01;100070.09;;;29.82;21.19
59272;BME280;45043;51.068;7.026;2022-08-25T15:33:02;100065.31;;;29.79;21.90
59272;BME280;45043;51.068;7.026;2022-08-25T15:36:04;100067.84;;;29.63;22.13
59272;BME280;45043;51.068;7.026;2022-08-25T15:39:06;100063.84;;;29.39;22.56
59272;BME280;45043;51.068;7.026;2022-08-25T15:42:08;100065.59;;;29.23;22.26
59272;BME280;45043;51.068;7.026;2022-08-25T15:45:09;100059.78;;;29.25;21.83
59272;BME280;45043;51.068;7.026;2022-08-25T15:48:10;100059.56;;;29.30;22.01
59272;BME280;45043;51.068;7.026;2022-08-25T15:51:10;100064.78;;;29.43;21.64
59272;BME280;45043;51.068;7.026;2022-08-25T15:54:11;100064.53;;;29.57;21.89
59272;BME280;45043;51.068;7.026;2022-08-25T15:57:15;100051.88;;;29.53;22.96
59272;BME280;45043;51.068;7.026;2022-08-25T16:00:16;100055.97;;;29.59;21.97
59272;BME280;45043;51.068;7.026;2022-08-25T16:03:17;100058.72;;;29.59;21.63
59272;BME280;45043;51.068;7.026;2022-08-25T16:06:18;100060.53;;;29.55;22.41
59272;BME280;45043;51.068;7.026;2022-08-25T16:09:20;100058.78;;;29.71;22.23
59272;BME280;45043;51.068;7.026;2022-08-25T16:12:20;100061.56;;;29.83;21.96
59272;BME280;45043;51.068;7.026;2022-08-25T16:15:21;100036.94;;;29.83;21.69
59272;BME280;45043;51.068;7.026;2022-08-25T16:18:22;100058.19;;;29.99;21.46
59272;BME280;45043;51.068;7.026;2022-08-25T16:21:27;100050.19;;;29.94;21.59
59272;BME280;45043;51.068;7.026;2022-08-25T16:24:28;100052.09;;;29.81;22.25
59272;BME280;45043;51.068;7.026;2022-08-25T16:27:29;100048.78;;;29.75;21.94
59272;BME280;45043;51.068;7.026;2022-08-25T16:30:29;100047.88;;;29.83;21.40
59272;BME280;45043;51.068;7.026;2022-08-25T16:33:30;100047.13;;;29.95;21.20
59272;BME280;45043;51.068;7.026;2022-08-25T16:36:35;100043.38;;;30.00;20.97
59272;BME280;45043;51.068;7.026;2022-08-25T16:39:38;100041.00;;;30.10;20.84
59272;BME280;45043;51.068;7.026;2022-08-25T16:42:43;100033.72;;;30.14;21.10
59272;BME280;45043;51.068;7.026;2022-08-25T16:45:44;100037.38;;;30.19;21.37
59272;BME280;45043;51.068;7.026;2022-08-25T16:48:45;100046.28;;;30.15;20.72
59272;BME280;45043;51.068;7.026;2022-08-25T16:51:46;100051.84;;;30.07;21.06
59272;BME280;45043;51.068;7.026;2022-08-25T16:54:47;100042.03;;;30.06;21.19
59272;BME280;45043;51.068;7.026;2022-08-25T16:58:06;100045.91;;;30.05;21.05
59272;BME280;45043;51.068;7.026;2022-08-25T17:01:11;100039.06;;;30.11;20.98
59272;BME280;45043;51.068;7.026;2022-08-25T17:04:15;100039.19;;;30.14;21.14
59272;BME280;45043;51.068;7.026;2022-08-25T17:07:18;100036.25;;;30.20;20.95
59272;BME280;45043;51.068;7.026;2022-08-25T17:10:27;100040.22;;;30.22;21.35
59272;BME280;45043;51.068;7.026;2022-08-25T17:13:28;100028.22;;;30.14;21.70
59272;BME280;45043;51.068;7.026;2022-08-25T17:16:31;100038.16;;;30.07;21.45
59272;BME280;45043;51.068;7.026;2022-08-25T17:19:32;100039.03;;;29.99;22.05
59272;BME280;45043;51.068;7.026;2022-08-25T17:22:33;100035.34;;;29.82;21.85
59272;BME280;45043;51.068;7.026;2022-08-25T17:25:35;100031.53;;;29.75;22.94
59272;BME280;45043;51.068;7.026;2022-08-25T17:28:36;100038.53;;;29.63;23.47
59272;BME280;45043;51.068;7.026;2022-08-25T17:31:37;100042.28;;;29.59;23.31
59272;BME280;45043;51.068;7.026;2022-08-25T17:34:38;100040.22;;;29.56;23.49
59272;BME280;45043;51.068;7.026;2022-08-25T17:37:40;100035.91;;;29.55;22.86
59272;BME280;45043;51.068;7.026;2022-08-25T17:40:40;100039.31;;;29.52;22.38
59272;BME280;45043;51.068;7.026;2022-08-25T17:43:41;100040.63;;;29.46;22.65